Terminal Aerodrome Forecast
Issued by NWS Albany, NY

Home | Current Version | Previous Version | Text Only | Print | Product List | Glossary On
Versions: 1 2 3 4 5 6 7 8 9 10 11 12 13 14 15 16 17 18 19 20
000
FTUS41 KALY 251100
TAFGFL
TAF
KGFL 251138Z 2512/2612 00000KT P6SM SKC
     FM251400 17005KT P6SM SKC
     FM251700 20007KT P6SM SCT040 SCT250
     FM260000 00000KT P6SM SKC
     FM260800 00000KT 2SM BR BKN008=

USA.gov is the U.S. government's official web portal to all federal, state and local government web resources and services.